Time;durP1;ratioP1;P1;durP2;ratioP2;P2;SDS_P1;SDS_P2;PMS_P1;PMS_P2;Temp;Humidity;BMP_temperature;BMP_pressure;BME280_temperature;BME280_humidity;BME280_pressure;Samples;Min_cycle;Max_cycle;Signal;HPM_P1;HPM_P2
2022/12/05 00:01:33;;;;;;;;;;;;;;;20.64;27.83;99006.50;5037602;28;1973;-76
2022/12/05 00:04:01;;;;;;;;;;;;;;;20.41;28.09;99003.38;5037617;28;1017;-76
2022/12/05 00:06:27;;;;;;;;;;;;;;;20.05;28.70;99003.56;5027810;28;1476;-76
2022/12/05 00:08:52;;;;;;;;;;;;;;;20.14;28.96;99015.25;5057675;28;897;-77
2022/12/05 00:11:27;;;;;;;;;;;;;;;20.42;28.60;99010.69;5040022;28;966;-76
2022/12/05 00:13:53;;;;;;;;;;;;;;;20.59;28.07;99006.97;5039815;28;976;-76
2022/12/05 00:16:19;;;;;;;;;;;;;;;20.67;27.89;99002.84;5038545;28;1599;-76
2022/12/05 00:18:45;;;;;;;;;;;;;;;20.52;28.10;99009.81;5040005;28;856;-76
2022/12/05 00:21:14;;;;;;;;;;;;;;;20.30;28.38;99009.09;5039601;28;1910;-76
2022/12/05 00:23:40;;;;;;;;;;;;;;;20.38;28.10;99007.06;5057534;28;888;-76
2022/12/05 00:26:05;;;;;;;;;;;;;;;20.28;28.61;99006.69;5056546;28;1681;-76
2022/12/05 00:28:31;;;;;;;;;;;;;;;20.66;28.06;98997.59;5057275;28;834;-76
2022/12/05 00:30:57;;;;;;;;;;;;;;;20.62;27.92;98997.63;5057352;28;975;-76
2022/12/05 00:33:22;;;;;;;;;;;;;;;20.77;27.94;99004.00;5057060;28;903;-77
2022/12/05 00:35:48;;;;;;;;;;;;;;;20.62;28.25;99003.28;5057400;28;889;-77
2022/12/05 00:38:13;;;;;;;;;;;;;;;20.65;27.67;98993.97;4988948;28;1294;-76
2022/12/05 00:40:38;;;;;;;;;;;;;;;20.18;28.64;99006.75;5053080;28;1979;-76
2022/12/05 00:43:04;;;;;;;;;;;;;;;20.54;28.29;99001.72;5037036;28;912;-76
2022/12/05 00:45:29;;;;;;;;;;;;;;;20.70;28.10;98987.88;5037101;28;997;-76
2022/12/05 00:47:55;;;;;;;;;;;;;;;20.69;27.81;98983.44;5037056;28;889;-76
2022/12/05 00:50:20;;;;;;;;;;;;;;;20.71;28.02;98995.16;5037350;28;967;-76
2022/12/05 00:52:45;;;;;;;;;;;;;;;20.51;27.85;98997.69;5036707;28;849;-76
2022/12/05 00:55:11;;;;;;;;;;;;;;;20.34;28.49;98997.78;5036826;28;1349;-76
2022/12/05 00:57:36;;;;;;;;;;;;;;;20.15;28.75;98985.75;5055731;28;1535;-76
2022/12/05 01:00:02;;;;;;;;;;;;;;;20.43;28.22;98989.66;5056659;28;1972;-76
2022/12/05 01:02:29;;;;;;;;;;;;;;;20.62;28.22;98980.66;5005007;28;1587;-76
2022/12/05 01:04:54;;;;;;;;;;;;;;;20.70;27.95;98982.22;5055779;28;919;-76
2022/12/05 01:07:20;;;;;;;;;;;;;;;20.68;27.85;98996.00;5056572;28;1034;-76
2022/12/05 01:09:45;;;;;;;;;;;;;;;20.35;28.23;98993.75;5020919;28;940;-76
2022/12/05 01:12:10;;;;;;;;;;;;;;;20.14;28.64;98984.16;5037983;28;1479;-76
2022/12/05 01:14:36;;;;;;;;;;;;;;;20.49;28.24;98999.34;5036677;28;1088;-76
2022/12/05 01:17:01;;;;;;;;;;;;;;;20.51;28.27;98982.75;5036561;28;946;-75
2022/12/05 01:19:28;;;;;;;;;;;;;;;20.63;28.39;98981.50;5036333;28;1234;-77
2022/12/05 01:21:53;;;;;;;;;;;;;;;20.90;27.58;98990.16;5001268;28;1918;-76
2022/12/05 01:24:19;;;;;;;;;;;;;;;20.83;27.71;98979.72;5019044;28;951;-75
2022/12/05 01:26:44;;;;;;;;;;;;;;;20.46;27.93;98988.81;5051657;28;1459;-77
2022/12/05 01:29:10;;;;;;;;;;;;;;;20.03;28.78;98986.22;5056108;28;938;-76
2022/12/05 01:31:36;;;;;;;;;;;;;;;20.59;28.07;98978.69;5056110;28;926;-76
2022/12/05 01:34:03;;;;;;;;;;;;;;;20.81;27.85;98976.50;5056035;28;1094;-76
2022/12/05 01:36:28;;;;;;;;;;;;;;;20.79;27.75;98974.09;5056036;28;1257;-76
2022/12/05 01:38:54;;;;;;;;;;;;;;;20.95;27.80;98969.91;5056121;28;915;-76
2022/12/05 01:41:20;;;;;;;;;;;;;;;20.60;27.83;98966.16;5054132;28;1918;-77
2022/12/05 01:43:51;;;;;;;;;;;;;;;20.44;27.97;98958.16;5038382;28;969;-76
2022/12/05 01:46:17;;;;;;;;;;;;;;;20.29;28.38;98962.28;5055817;28;952;-76
2022/12/05 01:48:43;;;;;;;;;;;;;;;20.48;28.51;98958.16;5056299;28;937;-76
2022/12/05 01:51:08;;;;;;;;;;;;;;;20.59;28.29;98953.22;5055645;28;892;-76
2022/12/05 01:53:34;;;;;;;;;;;;;;;20.75;27.99;98950.69;5037980;28;1039;-76
2022/12/05 01:55:59;;;;;;;;;;;;;;;20.75;27.76;98950.69;5033755;28;1520;-76
2022/12/05 01:58:25;;;;;;;;;;;;;;;20.59;27.93;98952.44;5037003;28;1617;-76
2022/12/05 02:00:50;;;;;;;;;;;;;;;20.72;27.83;98943.00;5038014;28;1910;-76
2022/12/05 02:03:17;;;;;;;;;;;;;;;20.18;28.58;98951.03;5055419;28;922;-76
2022/12/05 02:05:42;;;;;;;;;;;;;;;20.81;27.74;98940.50;5037906;28;913;-76
2022/12/05 02:08:08;;;;;;;;;;;;;;;20.56;28.04;98937.09;5018698;28;1608;-76
2022/12/05 02:10:38;;;;;;;;;;;;;;;20.63;28.20;98937.03;5035340;28;1075;-76
2022/12/05 02:13:12;;;;;;;;;;;;;;;20.72;27.80;98931.69;5018135;28;932;-76
2022/12/05 02:15:59;;;;;;;;;;;;;;;20.49;28.13;98937.16;5035437;28;945;-76
2022/12/05 02:18:31;;;;;;;;;;;;;;;20.28;28.27;98936.03;5017803;28;920;-76
2022/12/05 02:21:00;;;;;;;;;;;;;;;20.52;28.38;98927.81;5037233;28;1910;-76
2022/12/05 02:23:27;;;;;;;;;;;;;;;20.59;27.99;98936.25;5037581;28;1362;-76
2022/12/05 02:25:55;;;;;;;;;;;;;;;20.56;28.31;98931.44;5037508;28;935;-76
2022/12/05 02:28:20;;;;;;;;;;;;;;;20.77;27.69;98928.44;5055502;28;1027;-76
2022/12/05 02:30:53;;;;;;;;;;;;;;;20.46;28.01;98932.28;5055476;28;961;-75
2022/12/05 02:33:19;;;;;;;;;;;;;;;20.37;28.30;98929.94;5037477;28;896;-76
2022/12/05 02:35:53;;;;;;;;;;;;;;;20.43;28.68;98930.31;5053720;28;1571;-76
2022/12/05 02:38:27;;;;;;;;;;;;;;;20.72;27.80;98940.19;5020850;28;1030;-76
2022/12/05 02:41:01;;;;;;;;;;;;;;;20.60;28.03;98942.72;5037300;28;1910;-76
2022/12/05 02:43:39;;;;;;;;;;;;;;;20.79;27.61;98940.13;5055085;28;832;-76
2022/12/05 02:46:08;;;;;;;;;;;;;;;20.52;28.01;98944.78;5055013;28;1115;-77
2022/12/05 02:48:34;;;;;;;;;;;;;;;20.20;28.69;98959.09;5037460;28;1087;-76
2022/12/05 02:50:59;;;;;;;;;;;;;;;20.28;28.56;98964.31;5033986;28;1468;-77
2022/12/05 02:53:25;;;;;;;;;;;;;;;20.26;29.00;98963.94;5016797;28;1658;-76
2022/12/05 02:55:50;;;;;;;;;;;;;;;20.49;28.44;98959.75;5037508;28;933;-76
2022/12/05 02:58:23;;;;;;;;;;;;;;;20.75;27.79;98962.00;5055248;28;921;-76
2022/12/05 03:00:49;;;;;;;;;;;;;;;20.73;27.90;98955.97;5018143;28;1906;-76
2022/12/05 03:03:17;;;;;;;;;;;;;;;20.49;28.25;98959.75;5035430;28;843;-76
2022/12/05 03:05:46;;;;;;;;;;;;;;;20.20;28.41;98971.19;5017867;28;907;-76
2022/12/05 03:08:12;;;;;;;;;;;;;;;20.17;28.56;98966.41;5035164;28;891;-76
2022/12/05 03:10:38;;;;;;;;;;;;;;;20.70;27.91;98951.13;5017775;28;1014;-75
2022/12/05 03:13:04;;;;;;;;;;;;;;;20.80;28.01;98977.72;5017527;28;908;-76
2022/12/05 03:15:34;;;;;;;;;;;;;;;20.73;27.83;98963.63;5018047;28;1776;-76
2022/12/05 03:18:05;;;;;;;;;;;;;;;20.49;28.09;98971.06;5020969;28;1175;-76
2022/12/05 03:20:33;;;;;;;;;;;;;;;20.34;28.32;98975.19;5004261;28;1989;-76
2022/12/05 03:23:00;;;;;;;;;;;;;;;20.30;28.27;98961.06;5021032;28;1315;-76
2022/12/05 03:25:29;;;;;;;;;;;;;;;20.32;28.50;98960.66;5037153;28;1179;-76
2022/12/05 03:28:03;;;;;;;;;;;;;;;20.64;27.93;98960.47;5039125;28;941;-76
2022/12/05 03:30:28;;;;;;;;;;;;;;;20.64;28.04;98949.97;5038922;28;1703;-76
2022/12/05 03:33:02;;;;;;;;;;;;;;;20.70;28.06;98950.31;5040843;28;960;-76
2022/12/05 03:35:34;;;;;;;;;;;;;;;20.54;27.95;98946.00;5040712;28;821;-76
2022/12/05 03:38:10;;;;;;;;;;;;;;;20.26;28.67;98949.78;5058486;28;1251;-75
2022/12/05 03:40:46;;;;;;;;;;;;;;;20.48;27.94;98952.50;5040152;28;1902;-76
2022/12/05 03:43:24;;;;;;;;;;;;;;;20.53;28.18;98954.91;5040705;28;999;-76
2022/12/05 03:46:02;;;;;;;;;;;;;;;20.66;27.94;98956.00;5031531;28;1496;-76
2022/12/05 03:48:35;;;;;;;;;;;;;;;20.64;27.93;98961.28;5036217;28;1480;-76
2022/12/05 03:51:01;;;;;;;;;;;;;;;20.76;27.83;98955.09;5040582;28;1014;-76
2022/12/05 03:53:27;;;;;;;;;;;;;;;20.46;28.05;98961.38;5039860;28;942;-77
2022/12/05 03:55:55;;;;;;;;;;;;;;;20.16;28.51;98963.97;5040946;28;900;-75
2022/12/05 03:58:31;;;;;;;;;;;;;;;20.89;27.69;98960.28;5040113;28;920;-76
2022/12/05 04:00:57;;;;;;;;;;;;;;;20.56;28.34;98954.06;5029333;28;1906;-76
2022/12/05 04:03:25;;;;;;;;;;;;;;;20.58;28.20;98962.13;5020412;28;941;-76
2022/12/05 04:05:55;;;;;;;;;;;;;;;20.66;28.28;98961.66;5037872;28;969;-75
2022/12/05 04:08:21;;;;;;;;;;;;;;;20.59;27.90;98964.53;5019913;28;1207;-76
2022/12/05 04:10:47;;;;;;;;;;;;;;;20.38;28.50;98956.19;5037914;28;961;-76
2022/12/05 04:13:16;;;;;;;;;;;;;;;20.35;28.17;98971.13;5019777;28;954;-76
2022/12/05 04:18:27;;;;;;;;;;;;;;;20.48;28.39;98966.66;5008278;28;1084;-76
2022/12/05 04:23:36;;;;;;;;;;;;;;;20.61;28.28;98967.75;5042501;28;928;-76
2022/12/05 04:26:07;;;;;;;;;;;;;;;20.66;27.92;98972.97;5057658;28;994;-75
2022/12/05 04:28:33;;;;;;;;;;;;;;;20.72;28.08;98973.31;5035319;28;1635;-76
2022/12/05 04:31:04;;;;;;;;;;;;;;;20.29;28.37;98980.03;5052419;28;1345;-77
2022/12/05 04:33:43;;;;;;;;;;;;;;;20.19;28.43;98980.91;5039109;28;925;-76
2022/12/05 04:36:16;;;;;;;;;;;;;;;20.54;28.50;98977.09;5030694;28;1634;-76
2022/12/05 04:38:45;;;;;;;;;;;;;;;20.44;28.55;98980.75;5029039;28;1664;-76
2022/12/05 04:41:12;;;;;;;;;;;;;;;20.54;28.36;98991.22;5035952;28;2068;-76
2022/12/05 04:43:38;;;;;;;;;;;;;;;20.69;28.02;98986.28;5035990;28;2003;-76
2022/12/05 04:46:04;;;;;;;;;;;;;;;20.48;28.04;98983.59;5036541;28;1012;-76
2022/12/05 04:48:30;;;;;;;;;;;;;;;20.40;28.15;98984.81;5034302;28;1873;-76
2022/12/05 04:50:55;;;;;;;;;;;;;;;20.51;27.88;98982.75;5034746;28;1756;-76
2022/12/05 04:53:21;;;;;;;;;;;;;;;20.85;27.98;98987.78;5036810;28;854;-76
2022/12/05 04:55:47;;;;;;;;;;;;;;;20.68;27.89;98987.50;5035451;28;1077;-76
2022/12/05 04:58:13;;;;;;;;;;;;;;;20.67;28.19;98994.34;5002208;28;1074;-76
2022/12/05 05:00:57;;;;;;;;;;;;;;;20.48;28.04;98989.25;5035940;28;1977;-76
2022/12/05 05:03:24;;;;;;;;;;;;;;;20.19;28.79;99003.50;5036086;28;2148;-76
2022/12/05 05:05:50;;;;;;;;;;;;;;;20.29;28.88;99002.66;5035988;28;2134;-76
2022/12/05 05:08:20;;;;;;;;;;;;;;;20.42;28.46;98993.72;5034574;28;2205;-76
2022/12/05 05:11:24;;;;;;;;;;;;;;;20.52;28.57;98993.69;5035229;28;985;-76
2022/12/05 05:13:50;;;;;;;;;;;;;;;20.64;28.13;98989.56;5014220;28;1105;-76
2022/12/05 05:16:19;;;;;;;;;;;;;;;20.43;28.14;98993.28;5014758;28;950;-76
2022/12/05 05:18:45;;;;;;;;;;;;;;;20.29;28.59;99002.66;4998380;28;964;-77
2022/12/05 05:21:29;;;;;;;;;;;;;;;20.46;28.67;98986.81;4998211;28;1894;-76
2022/12/05 05:23:54;;;;;;;;;;;;;;;20.69;27.99;98991.94;4997938;28;1043;-76
2022/12/05 05:26:20;;;;;;;;;;;;;;;20.65;28.20;98996.00;4997775;28;1316;-76
2022/12/05 05:28:45;;;;;;;;;;;;;;;20.88;27.89;99004.75;4998087;28;998;-77
2022/12/05 05:31:11;;;;;;;;;;;;;;;20.62;28.14;99002.47;5014037;28;1017;-76
2022/12/05 05:33:36;;;;;;;;;;;;;;;20.19;28.62;99002.72;4997626;28;1019;-76
2022/12/05 05:36:03;;;;;;;;;;;;;;;20.10;28.89;99005.97;5013896;28;973;-76
2022/12/05 05:38:28;;;;;;;;;;;;;;;20.32;28.85;98997.41;5013563;28;995;-76
2022/12/05 05:40:53;;;;;;;;;;;;;;;20.70;28.18;98993.53;5014096;28;1973;-76
2022/12/05 05:43:19;;;;;;;;;;;;;;;20.68;28.17;98989.53;4981178;28;908;-77
2022/12/05 05:45:44;;;;;;;;;;;;;;;20.70;28.02;98993.53;5035714;28;1030;-76
2022/12/05 05:48:10;;;;;;;;;;;;;;;20.37;28.18;98989.28;5036064;28;873;-76
2022/12/05 05:50:36;;;;;;;;;;;;;;;20.28;28.52;99009.53;5035856;28;1035;-77
2022/12/05 05:53:09;;;;;;;;;;;;;;;20.27;28.52;98993.78;5035590;28;911;-76
2022/12/05 05:55:37;;;;;;;;;;;;;;;20.46;28.40;99000.13;5034525;28;860;-76
2022/12/05 05:58:03;;;;;;;;;;;;;;;20.54;28.29;98996.09;5034874;28;924;-76
2022/12/05 06:00:28;;;;;;;;;;;;;;;20.65;28.10;98996.81;5036209;28;1898;-76
2022/12/05 06:02:54;;;;;;;;;;;;;;;20.63;28.32;98999.25;5035919;28;712;-76
2022/12/05 06:05:19;;;;;;;;;;;;;;;20.24;28.49;99000.25;5016755;28;1102;-76
2022/12/05 06:07:44;;;;;;;;;;;;;;;20.28;28.69;99003.88;5035456;28;934;-75
2022/12/05 06:10:10;;;;;;;;;;;;;;;20.54;28.63;98996.09;5035472;28;723;-77
2022/12/05 06:12:35;;;;;;;;;;;;;;;20.49;28.40;99005.00;5035383;28;815;-77
2022/12/05 06:15:01;;;;;;;;;;;;;;;20.58;28.30;99008.19;5035454;28;962;-76
2022/12/05 06:17:26;;;;;;;;;;;;;;;20.72;28.05;99001.59;5031691;28;1071;-77
2022/12/05 06:19:52;;;;;;;;;;;;;;;20.41;28.44;99003.38;5005956;28;1218;-77
2022/12/05 06:22:17;;;;;;;;;;;;;;;20.21;28.51;99017.22;5027013;28;1922;-77
2022/12/05 06:24:43;;;;;;;;;;;;;;;20.23;28.60;99015.59;5027268;28;1209;-77
2022/12/05 06:27:08;;;;;;;;;;;;;;;20.52;28.70;99015.47;5024125;28;1225;-77
2022/12/05 06:29:34;;;;;;;;;;;;;;;20.74;27.94;99005.63;5026045;28;1272;-75
2022/12/05 06:32:00;;;;;;;;;;;;;;;20.66;28.06;99009.72;5026834;28;1218;-75
2022/12/05 06:34:25;;;;;;;;;;;;;;;20.47;28.17;99013.09;5008794;28;1244;-75
2022/12/05 06:36:51;;;;;;;;;;;;;;;20.13;29.00;99007.97;5029628;28;1293;-75
2022/12/05 06:39:16;;;;;;;;;;;;;;;20.18;28.77;99024.50;5055275;28;925;-76
2022/12/05 06:41:41;;;;;;;;;;;;;;;20.71;28.13;99017.78;5037602;28;1918;-75
2022/12/05 06:44:07;;;;;;;;;;;;;;;20.63;28.24;99021.88;5055078;28;933;-74
2022/12/05 06:46:33;;;;;;;;;;;;;;;20.74;28.08;99025.44;5045049;28;1101;-75
2022/12/05 06:48:58;;;;;;;;;;;;;;;20.57;28.27;99029.16;5044974;28;1205;-75
2022/12/05 06:51:24;;;;;;;;;;;;;;;20.48;28.16;99029.63;5043138;28;1170;-76
2022/12/05 06:53:49;;;;;;;;;;;;;;;20.10;28.99;99022.13;5028491;28;1198;-75
2022/12/05 06:56:16;;;;;;;;;;;;;;;20.64;28.22;99029.13;5041822;28;1296;-76
2022/12/05 06:58:41;;;;;;;;;;;;;;;20.51;28.32;99037.28;5042521;28;1288;-75
2022/12/05 07:04:01;;;;;;;;;;;;;;;20.50;28.31;99040.53;5049697;28;1319;-75
2022/12/05 07:06:26;;;;;;;;;;;;;;;20.23;28.64;99032.56;5049448;28;1182;-76
2022/12/05 07:08:52;;;;;;;;;;;;;;;20.16;28.86;99038.25;5046230;28;1181;-75
2022/12/05 07:11:17;;;;;;;;;;;;;;;20.33;28.79;99041.41;5048219;28;1206;-76
2022/12/05 07:13:43;;;;;;;;;;;;;;;20.48;28.38;99042.97;5048417;28;1119;-76
2022/12/05 07:16:08;;;;;;;;;;;;;;;20.56;28.38;99041.69;5049361;28;1135;-75
2022/12/05 07:18:34;;;;;;;;;;;;;;;20.67;28.16;99031.13;5049308;28;1317;-76
2022/12/05 07:21:00;;;;;;;;;;;;;;;20.44;28.28;99042.16;5051048;28;1996;-76
2022/12/05 07:23:26;;;;;;;;;;;;;;;20.14;28.93;99037.03;5027240;28;1163;-76
2022/12/05 07:25:51;;;;;;;;;;;;;;;20.06;28.76;99038.31;5047486;28;1261;-75
2022/12/05 07:28:17;;;;;;;;;;;;;;;20.43;28.91;99043.38;5048477;28;1178;-76
2022/12/05 07:30:42;;;;;;;;;;;;;;;20.45;28.74;99032.44;5048750;28;1289;-76
2022/12/05 07:33:08;;;;;;;;;;;;;;;20.70;28.42;99038.00;5048796;28;1269;-74
2022/12/05 07:35:33;;;;;;;;;;;;;;;20.61;28.49;99046.91;5045039;28;1337;-76
2022/12/05 07:38:00;;;;;;;;;;;;;;;20.40;28.51;99038.53;5047382;28;1249;-75
2022/12/05 07:40:26;;;;;;;;;;;;;;;20.22;29.09;99047.91;5049038;28;1902;-75
2022/12/05 07:42:54;;;;;;;;;;;;;;;20.11;29.09;99052.81;5048882;28;1461;-75
2022/12/05 07:45:20;;;;;;;;;;;;;;;20.51;28.59;99044.97;5047792;28;1163;-76
2022/12/05 07:47:45;;;;;;;;;;;;;;;20.64;28.60;99043.28;5046949;28;1343;-75
2022/12/05 07:50:11;;;;;;;;;;;;;;;20.62;28.53;99047.72;5048911;28;1210;-75
2022/12/05 07:52:36;;;;;;;;;;;;;;;20.66;28.67;99046.47;5038269;28;1186;-75
2022/12/05 07:55:02;;;;;;;;;;;;;;;20.43;28.58;99049.84;5038346;28;1102;-75
2022/12/05 07:57:30;;;;;;;;;;;;;;;20.22;28.75;99052.75;5043340;28;1213;-75
2022/12/05 07:59:56;;;;;;;;;;;;;;;20.27;29.37;99055.16;5057901;28;1133;-75
2022/12/05 08:02:21;;;;;;;;;;;;;;;20.49;28.76;99055.88;5057666;28;1909;-75
2022/12/05 08:04:47;;;;;;;;;;;;;;;20.58;28.69;99059.06;5058235;28;956;-76
2022/12/05 08:07:12;;;;;;;;;;;;;;;20.61;28.56;99051.78;5058366;28;936;-75
2022/12/05 08:09:38;;;;;;;;;;;;;;;20.32;28.66;99059.59;5058096;28;944;-75
2022/12/05 08:12:03;;;;;;;;;;;;;;;20.14;28.87;99057.63;5057465;28;1211;-75
2022/12/05 08:14:29;;;;;;;;;;;;;;;20.33;29.02;99055.53;5057450;28;966;-75
2022/12/05 08:16:54;;;;;;;;;;;;;;;20.42;28.88;99055.91;5022099;28;946;-75
2022/12/05 08:19:20;;;;;;;;;;;;;;;20.67;28.34;99053.75;5058337;28;950;-74
2022/12/05 08:21:45;;;;;;;;;;;;;;;20.72;28.43;99047.66;5057333;28;1971;-75
2022/12/05 08:24:11;;;;;;;;;;;;;;;20.57;28.21;99057.44;5039859;28;1204;-75
2022/12/05 08:26:37;;;;;;;;;;;;;;;20.38;28.63;99050.25;5022303;28;1085;-75
2022/12/05 08:29:06;;;;;;;;;;;;;;;20.52;28.31;99046.56;5057451;28;892;-76
2022/12/05 08:31:32;;;;;;;;;;;;;;;20.54;28.78;99049.81;5039688;28;986;-76
2022/12/05 08:33:58;;;;;;;;;;;;;;;20.59;28.60;99046.53;5039628;28;940;-76
2022/12/05 08:36:23;;;;;;;;;;;;;;;20.79;28.43;99052.47;5039622;28;1181;-76
2022/12/05 08:38:48;;;;;;;;;;;;;;;20.64;28.38;99042.47;5057222;28;911;-75
2022/12/05 08:41:15;;;;;;;;;;;;;;;20.36;28.77;99046.22;5056852;28;1969;-76
2022/12/05 08:43:40;;;;;;;;;;;;;;;20.32;28.59;99046.25;5039659;28;946;-76
2022/12/05 08:46:06;;;;;;;;;;;;;;;20.28;29.01;99046.25;5057249;28;861;-76
2022/12/05 08:48:32;;;;;;;;;;;;;;;20.41;28.89;99045.78;5039635;28;948;-76
2022/12/05 08:50:57;;;;;;;;;;;;;;;20.48;28.87;99048.63;5039421;28;942;-76
2022/12/05 08:53:23;;;;;;;;;;;;;;;20.55;28.55;99052.22;5039602;28;956;-75
2022/12/05 08:55:48;;;;;;;;;;;;;;;20.45;28.39;99049.41;5056758;28;957;-76
2022/12/05 08:58:14;;;;;;;;;;;;;;;20.16;28.98;99045.91;5056733;28;1017;-75
2022/12/05 09:00:39;;;;;;;;;;;;;;;20.03;29.31;99034.25;5056736;28;1969;-75
2022/12/05 09:03:05;;;;;;;;;;;;;;;20.66;28.76;99038.00;5056573;28;1046;-76
2022/12/05 09:05:30;;;;;;;;;;;;;;;20.51;28.90;99045.75;5056957;28;903;-76
2022/12/05 09:07:56;;;;;;;;;;;;;;;20.57;28.69;99040.47;5056778;28;938;-75
2022/12/05 09:10:21;;;;;;;;;;;;;;;20.80;28.12;99046.41;5056388;28;929;-76
2022/12/05 09:12:47;;;;;;;;;;;;;;;20.82;28.18;99045.97;5035748;28;1395;-76
2022/12/05 09:15:12;;;;;;;;;;;;;;;20.35;29.00;99033.31;5051146;28;1217;-75
2022/12/05 09:17:38;;;;;;;;;;;;;;;20.21;29.24;99035.00;5036360;28;1003;-75
2022/12/05 09:20:04;;;;;;;;;;;;;;;20.51;28.85;99030.81;5036362;28;926;-76
2022/12/05 09:22:29;;;;;;;;;;;;;;;20.57;28.84;99039.66;5034954;28;1985;-76
2022/12/05 09:24:55;;;;;;;;;;;;;;;20.59;28.86;99031.59;5046376;28;1241;-75
2022/12/05 09:27:20;;;;;;;;;;;;;;;20.72;28.39;99018.56;5050400;28;1205;-75
2022/12/05 09:29:46;;;;;;;;;;;;;;;20.65;28.67;99030.75;5056436;28;1088;-75
2022/12/05 09:32:11;;;;;;;;;;;;;;;20.22;28.98;99028.13;5047756;28;1257;-75
2022/12/05 09:34:37;;;;;;;;;;;;;;;20.21;29.13;99029.34;5049649;28;1419;-76
2022/12/05 09:37:05;;;;;;;;;;;;;;;20.32;29.15;99022.84;5033640;28;1018;-75
2022/12/05 09:39:30;;;;;;;;;;;;;;;20.40;28.95;99027.22;5026182;28;1095;-76
2022/12/05 09:42:03;;;;;;;;;;;;;;;20.58;28.77;99016.66;5053753;28;1913;-76
2022/12/05 09:44:41;;;;;;;;;;;;;;;20.61;28.60;99029.97;5023292;28;1351;-75
2022/12/05 09:47:16;;;;;;;;;;;;;;;20.40;28.67;99021.56;5021069;28;1253;-75
2022/12/05 09:49:55;;;;;;;;;;;;;;;19.99;29.36;99017.31;5017005;28;1045;-76
2022/12/05 09:52:24;;;;;;;;;;;;;;;20.16;29.20;99015.66;4974416;28;933;-75
2022/12/05 09:54:50;;;;;;;;;;;;;;;20.12;29.71;99019.72;4958574;28;911;-76
2022/12/05 09:57:16;;;;;;;;;;;;;;;20.45;28.99;99030.41;4958572;28;957;-76
2022/12/05 09:59:42;;;;;;;;;;;;;;;20.50;28.87;99017.91;4958729;28;1054;-76
2022/12/05 10:02:28;;;;;;;;;;;;;;;20.62;28.53;99025.91;4974427;28;1985;-75
2022/12/05 10:05:03;;;;;;;;;;;;;;;20.39;29.04;99014.31;4958583;28;989;-75
2022/12/05 10:07:47;;;;;;;;;;;;;;;20.13;29.05;99016.47;4974493;28;1040;-76
2022/12/05 10:10:15;;;;;;;;;;;;;;;20.27;29.24;99010.75;4974456;28;917;-76
2022/12/05 10:12:46;;;;;;;;;;;;;;;20.45;29.11;99010.63;4974952;28;1030;-75
2022/12/05 10:15:13;;;;;;;;;;;;;;;20.55;28.70;99015.44;4975917;28;2025;-76
2022/12/05 10:17:40;;;;;;;;;;;;;;;20.50;28.92;99006.59;5010704;28;1214;-76
2022/12/05 10:20:12;;;;;;;;;;;;;;;20.26;29.22;98997.84;4983268;28;1248;-76
2022/12/05 10:22:45;;;;;;;;;;;;;;;20.25;29.00;98996.19;5003508;28;1981;-76
2022/12/05 10:25:11;;;;;;;;;;;;;;;20.36;29.31;98995.34;5035799;28;1330;-76
2022/12/05 10:27:37;;;;;;;;;;;;;;;20.43;28.94;98992.50;5054806;28;1309;-77
2022/12/05 10:30:03;;;;;;;;;;;;;;;20.56;29.00;98993.63;5055289;28;1396;-77
2022/12/05 10:32:32;;;;;;;;;;;;;;;20.59;28.98;98998.47;5054460;28;1289;-77
2022/12/05 10:35:23;;;;;;;;;;;;;;;20.62;28.57;98991.97;5055115;28;1293;-76
2022/12/05 10:37:52;;;;;;;;;;;;;;;20.24;29.36;98988.94;5014757;28;1342;-77
2022/12/05 10:40:18;;;;;;;;;;;;;;;20.33;29.12;98996.19;5000205;28;1315;-77
2022/12/05 10:42:44;;;;;;;;;;;;;;;20.26;29.45;98985.69;5016896;28;1914;-77
2022/12/05 10:45:13;;;;;;;;;;;;;;;20.29;29.49;98985.69;4997982;28;1346;-77
2022/12/05 10:47:39;;;;;;;;;;;;;;;20.39;29.11;98986.03;5000358;28;1331;-77
2022/12/05 10:50:25;;;;;;;;;;;;;;;20.63;28.89;98970.97;5016889;28;1216;-77
2022/12/05 10:52:54;;;;;;;;;;;;;;;20.43;28.84;98978.34;5014157;28;1181;-77
2022/12/05 10:55:19;;;;;;;;;;;;;;;20.21;29.32;98989.78;4999945;28;1267;-76
2022/12/05 10:57:48;;;;;;;;;;;;;;;20.33;29.23;98990.53;5016694;28;1365;-76
2022/12/05 11:00:14;;;;;;;;;;;;;;;20.43;29.12;98972.69;5000172;28;1545;-77
2022/12/05 11:02:39;;;;;;;;;;;;;;;20.57;29.00;98972.63;5000231;28;1991;-76
2022/12/05 11:05:05;;;;;;;;;;;;;;;20.77;28.70;98965.19;5016562;28;1387;-76
2022/12/05 11:07:31;;;;;;;;;;;;;;;20.50;28.64;98965.00;5001835;28;1401;-77
2022/12/05 11:09:57;;;;;;;;;;;;;;;20.33;28.91;98973.56;4997548;28;909;-77
2022/12/05 11:12:24;;;;;;;;;;;;;;;20.10;29.25;98965.63;4980884;28;1001;-77
2022/12/05 11:14:57;;;;;;;;;;;;;;;20.43;29.16;98964.22;5005034;28;991;-76
2022/12/05 11:17:43;;;;;;;;;;;;;;;20.42;29.03;98962.63;5037837;28;1216;-76
2022/12/05 11:20:14;;;;;;;;;;;;;;;20.58;28.86;98957.28;5038450;28;1233;-77
2022/12/05 11:22:40;;;;;;;;;;;;;;;20.56;29.03;98954.06;5038753;28;1975;-76
2022/12/05 11:25:22;;;;;;;;;;;;;;;20.51;28.80;98951.66;5039102;28;845;-76
2022/12/05 11:27:47;;;;;;;;;;;;;;;20.01;29.73;98958.41;5038397;28;862;-77
2022/12/05 11:30:12;;;;;;;;;;;;;;;19.98;29.71;98958.41;5038448;28;1156;-77
2022/12/05 11:32:38;;;;;;;;;;;;;;;20.25;29.45;98961.50;5020669;28;2313;-77
2022/12/05 11:35:07;;;;;;;;;;;;;;;20.55;28.78;98947.59;5038577;28;881;-77
2022/12/05 11:37:45;;;;;;;;;;;;;;;20.60;28.96;98942.72;5037179;28;1263;-76
2022/12/05 11:40:33;;;;;;;;;;;;;;;20.68;28.85;98933.78;5020666;28;861;-77
2022/12/05 11:42:59;;;;;;;;;;;;;;;20.21;29.09;98943.75;4996444;28;1117;-76
2022/12/05 11:45:30;;;;;;;;;;;;;;;19.92;29.79;98938.25;4996391;28;1036;-76
2022/12/05 11:47:56;;;;;;;;;;;;;;;20.24;29.54;98926.78;4996145;28;1032;-77
2022/12/05 11:50:24;;;;;;;;;;;;;;;20.53;28.93;98932.28;4996890;28;925;-77
2022/12/05 11:53:05;;;;;;;;;;;;;;;20.68;28.61;98922.47;4996511;28;1174;-77
2022/12/05 11:55:42;;;;;;;;;;;;;;;20.63;28.86;98917.25;4996312;28;930;-77
2022/12/05 11:58:16;;;;;;;;;;;;;;;20.26;29.30;98918.72;4980449;28;865;-76
2022/12/05 12:01:08;;;;;;;;;;;;;;;20.13;29.60;98926.03;4979807;28;1899;-76
2022/12/05 12:03:56;;;;;;;;;;;;;;;20.46;29.24;98915.31;4938402;29;951;-77
2022/12/05 12:06:24;;;;;;;;;;;;;;;20.44;29.25;98909.28;4900468;29;1062;-76
2022/12/05 12:09:08;;;;;;;;;;;;;;;20.64;28.90;98916.03;4900074;29;1054;-76
2022/12/05 12:11:39;;;;;;;;;;;;;;;20.53;28.91;98904.00;4884766;29;1138;-77
2022/12/05 12:14:16;;;;;;;;;;;;;;;20.55;29.03;98907.22;4900222;29;1536;-76
2022/12/05 12:17:08;;;;;;;;;;;;;;;20.29;29.18;98903.72;4900194;29;1048;-76
2022/12/05 12:19:38;;;;;;;;;;;;;;;19.98;29.63;98904.75;4871542;29;1092;-77
2022/12/05 12:22:21;;;;;;;;;;;;;;;20.48;29.31;98901.63;4884616;29;1919;-76
2022/12/05 12:25:05;;;;;;;;;;;;;;;20.43;29.02;98902.03;4900174;29;1032;-76
2022/12/05 12:27:49;;;;;;;;;;;;;;;20.48;28.96;98895.97;4899966;29;998;-77
2022/12/05 12:30:23;;;;;;;;;;;;;;;20.59;28.74;98901.53;4899835;29;994;-77
2022/12/05 12:32:49;;;;;;;;;;;;;;;20.37;29.01;98901.66;4884786;29;1048;-77
2022/12/05 12:35:23;;;;;;;;;;;;;;;20.39;29.20;98898.41;4899779;29;1001;-77
2022/12/05 12:37:53;;;;;;;;;;;;;;;20.19;29.31;98896.13;4868589;29;1247;-76
2022/12/05 12:40:23;;;;;;;;;;;;;;;20.24;29.64;98886.41;4902039;29;991;-77
2022/12/05 12:42:58;;;;;;;;;;;;;;;20.44;29.09;98893.13;4947963;28;1915;-77
2022/12/05 12:45:26;;;;;;;;;;;;;;;20.61;28.88;98899.09;4960203;28;1058;-76
2022/12/05 12:48:10;;;;;;;;;;;;;;;20.67;28.79;98892.56;4975778;28;881;-76
2022/12/05 12:50:36;;;;;;;;;;;;;;;20.22;29.32;98886.84;4975811;28;972;-77
2022/12/05 12:53:07;;;;;;;;;;;;;;;20.23;29.47;98884.81;4936464;29;1230;-76
2022/12/05 12:55:51;;;;;;;;;;;;;;;20.53;28.90;98878.56;4928246;28;1198;-77
2022/12/05 12:58:31;;;;;;;;;;;;;;;20.67;28.73;98886.91;4976376;28;1225;-77
2022/12/05 13:01:19;;;;;;;;;;;;;;;20.58;29.02;98878.13;4975798;28;1914;-77
2022/12/05 13:03:50;;;;;;;;;;;;;;;20.67;28.85;98886.09;4991537;28;1412;-76
2022/12/05 13:06:17;;;;;;;;;;;;;;;20.14;29.42;98888.09;4994504;28;1314;-77
2022/12/05 13:08:46;;;;;;;;;;;;;;;20.11;29.50;98899.44;4978461;28;1323;-76
2022/12/05 13:11:11;;;;;;;;;;;;;;;20.39;29.65;98887.13;4976102;28;1316;-77
2022/12/05 13:13:38;;;;;;;;;;;;;;;20.71;28.94;98892.53;4978417;28;1363;-77
2022/12/05 13:16:06;;;;;;;;;;;;;;;20.60;28.72;98886.16;4978288;28;1371;-77